Latest Weather Observations for Noonamah

IDD60901

Issued at 8:45 pm CST Friday 24 October 2014 (issued every 10 minutes, with the page automatically refreshed every 10 minutes)

About weather observations | Map of Darwin area stations | Latest observations for Darwin area | Other Formats
Station Details ID: 014314 Name: NOONAMAH AIRSTRIP Lat: -12.61 Lon: 131.05 Height: 17.5 m
Data from the previous 72 hours. | See also: Recent months for locations in Northern Territory
Date/Time
CST
Tmp

°C
App
Tmp
°C
Dew
Point
°C
Rel
Hum
%
Delta-T

°C
Wind Press
QNH
hPa
Press
MSL
hPa
Rain
since
9 am
mm
Dir
 
Spd
km/h
Gust
km/h
Spd
kts
Gust
kts
24/08:30pm 29.1 31.8 19.4 55 6.3 NE 4 6 2 3 1011.2 1011.0 0.0
24/08:00pm 29.6 31.8 19.3 54 6.7 NNE 6 7 3 4 1010.9 1010.7 0.0
24/07:30pm 30.1 31.7 19.2 52 7.1 N 9 17 5 9 1010.4 1010.2 0.0
24/07:00pm 31.2 32.8 16.8 42 9.1 NNE 4 7 2 4 1009.8 1009.6 0.0
24/06:30pm 31.8 32.3 16.5 39 9.6 NNE 9 13 5 7 1009.4 1009.2 0.0
24/06:00pm 32.6 32.8 16.8 38 10.0 NE 11 19 6 10 1009.0 1008.8 0.0
24/05:30pm 33.7 33.5 16.6 36 10.9 NE 13 22 7 12 1008.3 1008.1 0.0
24/05:00pm 34.2 33.7 17.0 36 11.0 NE 15 26 8 14 1008.3 1008.1 0.0
24/04:30pm 35.0 34.5 17.7 36 11.2 NE 17 24 9 13 1008.3 1008.1 0.0
24/04:00pm 34.9 35.5 18.5 38 10.7 NW 13 24 7 13 1008.4 1008.2 0.0
24/03:30pm 35.0 34.8 17.7 36 11.2 NW 15 30 8 16 1008.7 1008.5 0.0
24/03:00pm 34.8 35.7 18.4 38 10.7 NW 11 20 6 11 1008.8 1008.6 0.0
24/02:30pm 37.1 35.0 12.5 23 14.9 ESE 15 28 8 15 1008.9 1008.7 0.0
24/02:00pm 37.4 35.4 12.8 23 15.0 SE 15 33 8 18 1009.3 1009.1 0.0
24/01:30pm 36.3 34.8 14.3 27 13.6 SE 15 28 8 15 1009.9 1009.7 0.0
24/01:00pm 34.9 34.2 14.2 28 12.7 E 11 20 6 11 1010.5 1010.3 0.0
24/12:30pm 35.6 34.1 14.3 28 13.2 E 15 33 8 18 1011.2 1011.0 0.0
24/12:00pm 35.2 32.3 13.9 27 13.1 SE 22 26 12 14 1011.9 1011.7 0.0
24/11:30am 33.8 32.9 14.8 32 11.8 E 13 26 7 14 1012.4 1012.2 0.0
24/11:00am 33.8 33.2 15.7 33 11.3 E 13 20 7 11 1013.0 1012.8 0.0
24/10:30am 31.6 31.5 17.9 44 8.8 ENE 15 22 8 12 1013.6 1013.4 0.0
24/10:00am 30.9 32.0 19.6 51 7.4 ENE 13 19 7 10 1014.0 1013.8 0.0
24/09:30am 30.4 31.9 19.7 52 7.0 NE 11 19 6 10 1014.1 1013.9 0.0
24/09:00am 29.7 32.5 20.8 58 5.9 ENE 7 13 4 7 1014.2 1014.0 0.0
24/08:30am 28.8 32.3 21.1 63 5.1 NE 4 7 2 4 1014.2 1014.0 0.0
24/08:00am 27.6 31.4 21.6 70 4.0 E 4 6 2 3 1014.0 1013.8 0.0
24/07:30am 25.6 29.8 21.7 79 2.6 E 2 4 1 2 1013.6 1013.4 0.0
24/07:00am 24.1 28.7 21.8 87 1.5 CALM 0 0 0 0 1013.4 1013.2 0.0
24/06:30am 22.8 27.0 20.9 89 1.2 CALM 0 0 0 0 1013.2 1013.0 0.0
24/06:00am 23.3 27.4 20.8 86 1.6 CALM 0 0 0 0 1012.9 1012.7 0.0
24/05:30am 23.9 28.3 21.4 86 1.6 CALM 0 0 0 0 1012.7 1012.5 0.0
24/05:00am 23.9 28.3 21.4 86 1.6 CALM 0 0 0 0 1012.4 1012.2 0.0
24/04:30am 23.9 27.6 20.8 83 2.0 NNE 2 4 1 2 1012.3 1012.1 0.0
24/04:00am 24.4 28.2 20.9 81 2.3 NE 2 4 1 2 1012.4 1012.2 0.0
24/03:30am 25.2 29.7 21.5 80 2.5 CALM 0 2 0 1 1012.2 1012.0 0.0
24/03:00am 25.2 29.5 21.1 78 2.7 CALM 0 0 0 0 1012.3 1012.1 0.0
24/02:30am 26.1 30.0 21.1 74 3.3 SSW 2 4 1 2 1012.5 1012.3 0.0
24/02:00am 26.9 31.2 21.2 71 3.8 CALM 0 0 0 0 1013.0 1012.8 0.0
24/01:30am 27.3 31.5 20.9 68 4.2 CALM 0 0 0 0 1013.2 1013.0 0.0
24/01:00am 27.7 30.8 21.0 67 4.4 W 6 7 3 4 1013.3 1013.1 0.0
24/12:30am 27.5 30.5 20.8 67 4.4 NNE 6 7 3 4 1013.7 1013.5 0.0
24/12:00am 27.7 29.5 19.5 61 5.3 NW 9 15 5 8 1013.4 1013.2 0.0
 
Date/Time
CST
Tmp

°C
App
Tmp
°C
Dew
Point
°C
Rel
Hum
%
Delta-T

°C
Wind Press
QNH
hPa
Press
MSL
hPa
Rain
since
9 am
mm
Dir
 
Spd
km/h
Gust
km/h
Spd
kts
Gust
kts
23/11:30pm 26.6 29.6 20.9 71 3.8 N 6 13 3 7 1013.4 1013.2 0.0
23/11:00pm 26.4 29.0 19.3 65 4.6 NE 4 6 2 3 1013.4 1013.2 0.0
23/10:30pm 26.6 28.6 17.9 59 5.5 NE 4 4 2 2 1013.3 1013.1 0.0
23/10:00pm 27.2 28.5 17.1 54 6.3 ESE 6 6 3 3 1013.0 1012.8 0.0
23/09:30pm 27.2 29.0 17.4 55 6.2 ESE 4 6 2 3 1012.3 1012.1 0.0
23/09:00pm 27.8 30.4 17.6 53 6.4 CALM 0 0 0 0 1011.7 1011.5 0.0
23/08:30pm 28.7 30.8 16.3 47 7.7 CALM 0 0 0 0 1011.2 1011.0 0.0
23/08:00pm 30.1 31.3 15.8 42 8.9 NW 4 6 2 3 1010.8 1010.6 0.0
23/07:30pm 30.8 32.2 16.4 42 9.0 NW 4 7 2 4 1010.4 1010.2 0.0
23/07:00pm 31.6 32.5 16.0 39 9.7 NNW 6 7 3 4 1009.9 1009.7 0.0
23/06:30pm 32.5 33.0 15.5 36 10.6 N 7 11 4 6 1009.5 1009.3 0.0
23/06:00pm 33.5 33.2 15.5 34 11.3 NNW 11 17 6 9 1008.9 1008.7 0.0
23/05:30pm 34.4 35.0 15.8 33 11.7 N 7 15 4 8 1008.5 1008.3 0.0
23/05:00pm 34.7 34.1 15.6 32 12.0 N 13 22 7 12 1008.3 1008.1 0.0
23/04:30pm 35.0 34.3 15.3 30 12.3 NNW 13 20 7 11 1008.2 1008.0 0.0
23/04:00pm 35.2 34.0 15.0 30 12.6 NW 15 22 8 12 1008.5 1008.3 0.0
23/03:30pm 35.8 36.5 16.0 30 12.6 NW 7 15 4 8 1008.6 1008.4 0.0
23/03:00pm 37.3 36.4 11.3 21 15.5 SE 7 19 4 10 1008.8 1008.6 0.0
23/02:30pm 37.0 34.7 11.8 22 15.1 ESE 15 43 8 23 1009.2 1009.0 0.0
23/02:00pm 36.3 35.2 11.9 23 14.6 SE 9 20 5 11 1009.7 1009.5 0.0
23/01:30pm 36.1 34.0 12.3 24 14.3 ESE 15 26 8 14 1010.3 1010.1 0.0
23/01:00pm 34.9 34.2 12.0 25 13.6 SSE 7 17 4 9 1011.0 1010.8 0.0
23/12:30pm 34.6 33.4 12.9 27 13.1 SE 11 19 6 10 1011.6 1011.4 0.0
23/12:00pm 33.9 32.5 13.4 29 12.4 E 13 22 7 12 1012.2 1012.0 0.0
23/11:30am 33.5 31.5 14.0 30 11.9 ENE 17 26 9 14 1012.7 1012.5 0.0
23/11:00am 33.0 31.3 14.6 33 11.3 ESE 17 26 9 14 1013.1 1012.9 0.0
23/10:30am 32.1 33.0 18.3 44 8.9 E 11 19 6 10 1013.5 1013.3 0.0
23/10:00am 31.2 31.6 18.2 46 8.4 ENE 13 20 7 11 1014.1 1013.9 0.0
23/09:30am 30.2 32.2 20.7 56 6.3 ENE 11 15 6 8 1014.2 1014.0 0.0
23/09:00am 28.9 31.4 21.7 65 4.8 ENE 11 17 6 9 1014.3 1014.1 2.8
23/08:30am 27.6 31.8 22.5 74 3.4 E 4 7 2 4 1014.3 1014.1 2.8
23/08:00am 26.6 31.2 23.1 81 2.4 E 4 6 2 3 1014.2 1014.0 2.8
23/07:30am 25.5 31.2 23.7 90 1.2 CALM 0 0 0 0 1013.9 1013.7 2.8
23/07:00am 24.3 29.4 23.4 95 0.6 SE 2 4 1 2 1013.6 1013.4 2.8
23/06:30am 23.8 28.5 23.3 97 0.3 SE 4 6 2 3 1013.3 1013.1 2.6
23/06:00am 23.6 28.8 22.9 96 0.5 CALM 0 2 0 1 1012.9 1012.7 2.6
23/05:30am 23.7 28.2 23.0 96 0.5 E 4 6 2 3 1012.4 1012.2 2.6
23/05:00am 23.9 29.3 23.2 96 0.5 CALM 0 0 0 0 1012.1 1011.9 2.6
23/04:30am 24.0 29.3 23.1 95 0.6 CALM 0 0 0 0 1012.0 1011.8 2.6
23/04:00am 24.2 29.6 23.2 94 0.7 CALM 0 0 0 0 1012.0 1011.8 2.6
23/03:30am 24.3 28.9 23.1 93 0.8 ESE 4 6 2 3 1012.2 1012.0 2.6
23/03:00am 24.8 30.4 23.6 93 0.8 CALM 0 0 0 0 1012.2 1012.0 2.6
23/02:30am 24.6 30.0 23.2 92 0.9 CALM 0 0 0 0 1012.4 1012.2 2.6
23/02:00am 24.5 28.6 22.9 91 1.1 SSW 6 9 3 5 1012.8 1012.6 2.6
23/01:30am 26.3 30.8 24.0 87 1.6 ESE 7 20 4 11 1013.0 1012.8 1.8
23/01:00am 27.9 31.7 22.8 74 3.5 N 7 13 4 7 1012.7 1012.5 0.0
23/12:30am 28.1 32.5 22.8 73 3.6 NNW 4 9 2 5 1013.0 1012.8 0.0
23/12:00am 28.1 32.1 22.1 70 4.0 WNW 4 7 2 4 1013.4 1013.2 0.0
 
Date/Time
CST
Tmp

°C
App
Tmp
°C
Dew
Point
°C
Rel
Hum
%
Delta-T

°C
Wind Press
QNH
hPa
Press
MSL
hPa
Rain
since
9 am
mm
Dir
 
Spd
km/h
Gust
km/h
Spd
kts
Gust
kts
22/11:30pm 28.2 32.3 22.2 70 4.0 WNW 4 7 2 4 1013.5 1013.3 0.0
22/11:00pm 27.9 31.1 21.7 69 4.2 W 7 9 4 5 1013.3 1013.1 0.0
22/10:30pm 27.9 31.2 21.9 70 4.0 NNW 7 13 4 7 1013.1 1012.9 0.0
22/10:00pm 28.2 31.1 20.7 63 5.0 E 6 7 3 4 1012.7 1012.5 0.0
22/09:30pm 28.4 31.8 20.2 61 5.4 NNE 2 6 1 3 1012.5 1012.3 0.0
22/09:00pm 29.0 32.7 19.9 58 6.0 CALM 0 0 0 0 1012.0 1011.8 0.0
22/08:30pm 29.4 32.6 19.7 56 6.3 N 2 6 1 3 1011.5 1011.3 0.0
22/08:00pm 30.0 33.0 20.0 55 6.6 WNW 4 7 2 4 1011.1 1010.9 0.0
22/07:30pm 30.4 33.1 20.3 54 6.7 WNW 6 11 3 6 1010.7 1010.5 0.0
22/07:00pm 30.8 33.0 20.4 54 6.9 WNW 9 15 5 8 1010.4 1010.2 0.0
22/06:30pm 31.7 32.7 20.3 50 7.6 WNW 15 22 8 12 1009.8 1009.6 0.0
22/06:00pm 32.9 34.2 20.1 47 8.5 NW 13 19 7 10 1009.4 1009.2 0.0
22/05:30pm 34.0 35.8 20.4 45 9.1 NW 11 19 6 10 1009.0 1008.8 0.0
22/05:00pm 34.2 35.9 20.2 43 9.3 NNW 11 17 6 9 1008.8 1008.6 0.0
22/04:30pm 33.9 35.8 20.6 45 8.9 NW 11 19 6 10 1008.9 1008.7 0.0
22/04:00pm 34.4 36.6 21.1 45 9.0 NNW 11 19 6 10 1008.9 1008.7 0.0
22/03:30pm 35.0 37.4 20.9 43 9.5 NW 9 15 5 8 1009.2 1009.0 0.0
22/03:00pm 35.1 37.4 19.9 41 10.1 N 7 15 4 8 1009.5 1009.3 0.0
22/02:30pm 35.2 34.7 15.0 30 12.6 E 11 20 6 11 1009.8 1009.6 0.0
22/02:00pm 35.3 35.4 15.6 31 12.4 SE 9 17 5 9 1010.5 1010.3 0.0
22/01:30pm 35.6 36.0 16.4 32 12.2 NNE 9 15 5 8 1011.1 1010.9 0.0
22/01:00pm 36.1 35.4 16.3 31 12.6 ESE 15 28 8 15 1011.9 1011.7 0.0
22/12:30pm 34.1 34.6 16.5 35 11.2 ESE 9 24 5 13 1012.5 1012.3 0.0
22/12:00pm 34.0 35.7 18.5 40 10.1 NE 7 19 4 10 1013.1 1012.9 0.0
22/11:30am 32.9 33.6 17.9 41 9.7 ENE 11 19 6 10 1013.6 1013.4 0.0
22/11:00am 32.7 33.3 18.5 43 9.2 E 13 19 7 10 1014.1 1013.9 0.0
22/10:30am 32.2 33.7 19.8 48 8.2 ESE 11 20 6 11 1014.6 1014.4 0.0
22/10:00am 31.3 32.8 20.6 53 7.1 E 13 19 7 10 1014.9 1014.7 0.0
22/09:30am 29.6 31.7 20.2 57 6.2 NE 9 19 5 10 1015.0 1014.8 0.0
22/09:00am 29.4 32.8 21.6 63 5.2 E 6 13 3 7 1014.6 1014.4 0.0
22/08:30am 28.8 32.2 21.6 65 4.8 N 6 9 3 5 1014.4 1014.2 0.0
22/08:00am 27.5 31.8 22.0 72 3.7 WNW 2 4 1 2 1014.4 1014.2 0.0
22/07:30am 25.4 29.9 21.5 79 2.6 CALM 0 0 0 0 1013.9 1013.7 0.0
22/07:00am 24.3 28.8 21.6 85 1.8 CALM 0 0 0 0 1013.6 1013.4 0.0
22/06:30am 23.0 27.2 20.9 88 1.4 CALM 0 0 0 0 1013.3 1013.1 0.0
22/06:00am 23.3 27.1 21.0 87 1.5 SW 2 4 1 2 1013.3 1013.1 0.0
22/05:30am 23.6 27.5 21.1 86 1.6 NNW 2 4 1 2 1012.9 1012.7 0.0
22/05:00am 24.0 28.2 20.9 83 2.0 CALM 0 0 0 0 1013.0 1012.8 0.0
22/04:30am 24.0 27.3 20.7 82 2.2 N 4 6 2 3 1012.7 1012.5 0.0
22/04:00am 24.8 28.3 21.1 80 2.4 ENE 4 6 2 3 1013.0 1012.8 0.0
22/03:30am 25.2 28.4 21.3 79 2.6 ENE 6 9 3 5 1012.8 1012.6 0.0
22/03:00am 25.7 29.6 21.1 76 3.0 E 2 6 1 3 1012.8 1012.6 0.0
22/02:30am 26.3 29.8 21.1 73 3.4 N 4 6 2 3 1012.6 1012.4 0.0
22/02:00am 26.5 30.2 20.8 71 3.8 N 2 4 1 2 1013.1 1012.9 0.0
22/01:30am 26.8 30.3 21.1 71 3.8 N 4 6 2 3 1013.3 1013.1 0.0
22/01:00am 26.5 30.3 21.7 75 3.2 N 4 7 2 4 1013.7 1013.5 0.0
22/12:30am 25.7 28.6 20.7 74 3.3 N 6 7 3 4 1014.0 1013.8 0.0
22/12:00am 25.0 27.9 18.2 66 4.3 CALM 0 2 0 1 1014.2 1014.0 0.0
 
Date/Time
CST
Tmp

°C
App
Tmp
°C
Dew
Point
°C
Rel
Hum
%
Delta-T

°C
Wind Press
QNH
hPa
Press
MSL
hPa
Rain
since
9 am
mm
Dir
 
Spd
km/h
Gust
km/h
Spd
kts
Gust
kts
21/11:30pm 25.6 28.5 18.3 64 4.6 CALM 0 4 0 2 1014.3 1014.1 0.0
21/11:00pm 26.5 29.0 18.1 60 5.3 SE 2 6 1 3 1014.5 1014.3 0.0
21/10:30pm 26.4 29.2 18.0 60 5.3 CALM 0 0 0 0 1014.4 1014.2 0.0
21/10:00pm 26.4 29.2 18.0 60 5.3 CALM 0 0 0 0 1014.1 1013.9 0.0
21/09:30pm 26.6 28.2 17.9 59 5.5 NE 6 7 3 4 1013.5 1013.3 0.0
21/09:00pm 28.0 31.5 19.5 60 5.5 CALM 0 0 0 0 1013.0 1012.8 0.0

Latest Capital City Observations: Canberra | Sydney | Melbourne | Brisbane | Adelaide | Perth | Hobart | Darwin

Other Formats:

Comma delimited format used in spreadsheet applications
http://www.bom.gov.au/fwo/IDD60901/IDD60901.94105.axf

JavaScript Object Notation format (JSON) in row-major order
http://www.bom.gov.au/fwo/IDD60901/IDD60901.94105.json